Flugplatz Schleswig Airport

Bericht für ETNS

vom 25.10. um 16:20 UTC

Wind 5 kt aus 190°

Sichtweite 3000 m

Temperatur 10.0°C

Taupunkt 9.0°C

Luftfeuchtigkeit 93%

Luftdruck 1015 hPa

ETNS 251620Z AUTO 19005KT 3000 // ////// 10/09 Q1015 ///

Prognose für ETNS

vom 25.10. um 13:05 UTC

Zwischen 14:00 UTC und 23:00 UTC

Wind 7 kt aus 200°

Sichtweite 10 km oder mehr

keine signifikanten Wettererscheinungen

aufgebrochene Bewölkung in 2000 ft


Zwischen 14:00 UTC und 15:00 UTC zeitweise

Wind 10 kt aus 180°

Sichtweite 4000 m

schwacher Regen

schwacher Sprühregen

aufgebrochene Bewölkung in 700 ft


Zwischen 15:00 UTC und 23:00 UTC zeitweise

Wind 10 kt aus 160°

Sichtweite 2000 m

Regen

Sprühregen

aufgebrochene Bewölkung in 500 ft

TAF ETNS 251305Z 2514/2523 20007KT 9999 NSW BKN020 TEMPO 2514/2515 18010KT 4000 -RADZ BKN007 TEMPO 2515/2523 16010KT 2000 RADZ BKN005 BY ETGL
Impressum